createdAt,value
2023-05-19T00:00:14.759Z,9.63
2023-05-19T00:02:46.328Z,9.55
2023-05-19T00:05:18.538Z,9.56
2023-05-19T00:07:48.078Z,9.55
2023-05-19T00:10:17.876Z,9.51
2023-05-19T00:12:46.178Z,9.44
2023-05-19T00:15:15.355Z,9.45
2023-05-19T00:17:44.831Z,9.50
2023-05-19T00:20:14.317Z,9.45
2023-05-19T00:22:44.062Z,9.30
2023-05-19T00:25:12.297Z,9.32
2023-05-19T00:27:40.289Z,9.38
2023-05-19T00:30:10.297Z,9.30
2023-05-19T00:32:38.344Z,9.20
2023-05-19T00:35:09.306Z,9.27
2023-05-19T00:37:37.285Z,9.27
2023-05-19T00:40:08.999Z,9.15
2023-05-19T00:42:37.001Z,9.07
2023-05-19T00:45:06.850Z,8.96
2023-05-19T00:47:35.291Z,9.00
2023-05-19T00:50:03.394Z,9.10
2023-05-19T00:52:32.864Z,9.08
2023-05-19T00:55:00.942Z,9.05
2023-05-19T00:57:29.522Z,9.05
2023-05-19T00:59:57.734Z,9.10
2023-05-19T01:02:26.195Z,9.05
2023-05-19T01:04:56.308Z,9.01
2023-05-19T01:07:25.417Z,9.00
2023-05-19T01:09:56.375Z,8.92
2023-05-19T01:12:24.492Z,8.85
2023-05-19T01:14:52.628Z,8.79
2023-05-19T01:17:34.277Z,8.78
2023-05-19T01:20:10.984Z,8.85
2023-05-19T01:23:05.541Z,8.78
2023-05-19T01:29:07.680Z,8.79
2023-05-19T01:31:38.644Z,8.81
2023-05-19T01:34:10.582Z,8.73
2023-05-19T01:36:44.962Z,8.69
2023-05-19T01:39:15.496Z,8.60
2023-05-19T01:41:46.637Z,8.63
2023-05-19T01:44:15.973Z,8.62
2023-05-19T01:46:48.657Z,8.63
2023-05-19T01:49:16.691Z,8.63
2023-05-19T01:51:51.020Z,8.58
2023-05-19T01:54:18.976Z,8.56
2023-05-19T01:56:54.065Z,8.56
2023-05-19T01:59:35.575Z,8.57
2023-05-19T02:02:14.508Z,8.58
2023-05-19T02:04:46.022Z,8.52
2023-05-19T02:07:18.320Z,8.44
2023-05-19T02:09:54.355Z,8.38
2023-05-19T02:12:29.391Z,8.50
2023-05-19T02:15:05.898Z,8.53
2023-05-19T02:17:42.369Z,8.52
2023-05-19T02:20:12.277Z,8.49
2023-05-19T02:22:40.526Z,8.53
2023-05-19T02:25:12.547Z,8.54
2023-05-19T02:27:40.849Z,8.51
2023-05-19T02:30:10.228Z,8.48
2023-05-19T02:32:42.701Z,8.51
2023-05-19T02:35:14.094Z,8.43
2023-05-19T02:37:42.162Z,8.53
2023-05-19T02:40:11.141Z,8.61
2023-05-19T02:42:39.153Z,8.41
2023-05-19T02:45:08.100Z,8.54
2023-05-19T02:47:37.226Z,8.52
2023-05-19T02:50:09.777Z,8.52
2023-05-19T02:52:37.739Z,8.52
2023-05-19T02:55:06.673Z,8.63
2023-05-19T02:57:36.010Z,8.66
2023-05-19T03:00:05.833Z,8.50
2023-05-19T03:02:35.532Z,8.60
2023-05-19T03:05:04.364Z,8.63
2023-05-19T03:07:33.988Z,8.61
2023-05-19T03:10:03.827Z,8.49
2023-05-19T03:12:32.440Z,8.52
2023-05-19T03:15:00.458Z,8.58
2023-05-19T03:17:33.577Z,8.47
2023-05-19T03:20:02.393Z,8.51
2023-05-19T03:22:32.255Z,8.54
2023-05-19T03:25:01.736Z,8.61
2023-05-19T03:27:30.270Z,8.58
2023-05-19T03:29:58.212Z,8.66
2023-05-19T03:32:26.767Z,8.73
2023-05-19T03:34:57.860Z,8.80
2023-05-19T03:37:26.916Z,8.73
2023-05-19T03:39:56.250Z,8.72
2023-05-19T03:42:26.377Z,8.80
2023-05-19T03:44:56.617Z,8.83
2023-05-19T03:47:24.927Z,8.89
2023-05-19T03:49:56.041Z,8.88
2023-05-19T03:52:49.135Z,8.91
2023-05-19T03:55:29.841Z,9.08
2023-05-19T03:57:59.347Z,8.98
2023-05-19T04:00:27.621Z,9.03
2023-05-19T04:02:56.021Z,9.15
2023-05-19T04:05:24.054Z,9.19
2023-05-19T04:07:52.046Z,9.15
2023-05-19T04:10:20.665Z,9.37
2023-05-19T04:12:49.291Z,9.40
2023-05-19T04:15:18.857Z,9.46
2023-05-19T04:17:47.117Z,9.53
2023-05-19T04:20:17.061Z,9.42
2023-05-19T04:22:45.699Z,9.39
2023-05-19T04:25:13.645Z,9.35
2023-05-19T04:27:41.610Z,9.46
2023-05-19T04:30:10.499Z,9.56
2023-05-19T04:32:41.393Z,9.50
2023-05-19T04:35:09.744Z,9.47
2023-05-19T04:37:39.636Z,9.47
2023-05-19T04:40:12.462Z,9.49
2023-05-19T04:42:43.605Z,9.57
2023-05-19T04:45:12.905Z,9.56
2023-05-19T04:47:48.469Z,9.52
2023-05-19T04:50:16.983Z,9.68
2023-05-19T04:52:46.419Z,9.71
2023-05-19T04:55:18.589Z,9.72
2023-05-19T04:57:48.125Z,9.72
2023-05-19T05:00:16.901Z,9.71
2023-05-19T05:03:05.281Z,9.78
2023-05-19T05:05:33.901Z,9.81
2023-05-19T05:08:03.156Z,9.93
2023-05-19T05:10:35.808Z,9.98
2023-05-19T05:13:04.509Z,10.09
2023-05-19T05:15:35.636Z,10.15
2023-05-19T05:18:06.630Z,10.07
2023-05-19T05:20:35.773Z,10.12
2023-05-19T05:23:04.421Z,10.15
2023-05-19T05:25:34.827Z,10.12
2023-05-19T05:28:04.954Z,10.09
2023-05-19T05:30:35.527Z,10.20
2023-05-19T05:33:06.295Z,10.10
2023-05-19T05:35:38.043Z,10.16
2023-05-19T05:38:08.080Z,10.39
2023-05-19T05:40:37.607Z,10.24
2023-05-19T05:43:06.533Z,10.33
2023-05-19T05:45:39.198Z,10.42
2023-05-19T05:48:10.551Z,10.48
2023-05-19T05:50:39.472Z,10.72
2023-05-19T05:53:09.947Z,10.76
2023-05-19T05:55:41.441Z,10.80
2023-05-19T05:58:11.133Z,10.73
2023-05-19T06:00:39.514Z,10.96
2023-05-19T06:03:09.857Z,11.10
2023-05-19T06:05:38.328Z,11.14
2023-05-19T06:08:06.520Z,11.34
2023-05-19T06:10:35.853Z,11.36
2023-05-19T06:13:07.533Z,11.50
2023-05-19T06:15:40.025Z,11.66
2023-05-19T06:18:19.712Z,11.71
2023-05-19T06:20:49.773Z,11.67
2023-05-19T06:23:18.550Z,11.82
2023-05-19T06:25:48.667Z,11.83
2023-05-19T06:28:16.944Z,12.02
2023-05-19T06:30:45.604Z,12.08
2023-05-19T06:33:41.869Z,12.24
2023-05-19T06:36:10.838Z,12.27
2023-05-19T06:38:40.882Z,12.42
2023-05-19T06:41:09.541Z,12.49
2023-05-19T06:43:38.500Z,12.51
2023-05-19T06:46:06.597Z,12.63
2023-05-19T06:48:34.875Z,12.71
2023-05-19T06:51:06.954Z,12.77
2023-05-19T06:53:36.104Z,12.83
2023-05-19T06:56:08.765Z,12.97
2023-05-19T06:58:39.438Z,13.00
2023-05-19T07:01:07.698Z,13.02
2023-05-19T07:03:42.822Z,13.11
2023-05-19T07:06:14.872Z,13.19
2023-05-19T07:08:43.351Z,13.28
2023-05-19T07:11:13.378Z,13.39
2023-05-19T07:13:42.840Z,13.59
2023-05-19T07:16:11.530Z,13.64
2023-05-19T07:18:44.126Z,13.75
2023-05-19T07:21:14.906Z,13.77
2023-05-19T07:23:42.962Z,13.76
2023-05-19T07:26:10.952Z,13.79
2023-05-19T07:28:41.424Z,13.92
2023-05-19T07:31:09.895Z,14.07
2023-05-19T07:33:37.925Z,14.14
2023-05-19T07:36:06.140Z,14.30
2023-05-19T07:38:35.774Z,14.39
2023-05-19T07:41:04.008Z,14.61
2023-05-19T07:43:32.250Z,14.73
2023-05-19T07:46:00.266Z,14.92
2023-05-19T07:48:28.340Z,14.96
2023-05-19T07:50:56.893Z,15.01
2023-05-19T07:53:25.174Z,15.09
2023-05-19T07:55:58.728Z,15.24
2023-05-19T07:58:27.280Z,15.30
2023-05-19T08:00:58.262Z,15.28
2023-05-19T08:03:26.971Z,15.41
2023-05-19T08:05:55.409Z,15.42
2023-05-19T08:08:23.463Z,15.57
2023-05-19T08:10:55.102Z,15.65
2023-05-19T08:13:24.721Z,15.52
2023-05-19T08:15:54.338Z,15.57
2023-05-19T08:18:22.293Z,15.67
2023-05-19T08:20:50.533Z,15.74
2023-05-19T08:23:18.640Z,15.76
2023-05-19T08:25:46.784Z,15.72
2023-05-19T08:28:16.235Z,15.87
2023-05-19T08:30:44.278Z,15.97
2023-05-19T08:33:12.629Z,16.23
2023-05-19T08:35:40.709Z,16.04
2023-05-19T08:38:08.735Z,16.02
2023-05-19T08:40:42.411Z,16.03
2023-05-19T08:43:11.719Z,16.18
2023-05-19T08:45:44.503Z,16.30
2023-05-19T08:48:17.909Z,16.63
2023-05-19T08:50:53.092Z,16.75
2023-05-19T08:56:10.214Z,17.05
2023-05-19T08:58:40.355Z,17.11
2023-05-19T09:01:14.649Z,16.89
2023-05-19T09:03:43.193Z,16.83
2023-05-19T09:06:13.165Z,17.19
2023-05-19T09:08:42.093Z,17.41
2023-05-19T09:11:10.851Z,17.21
2023-05-19T09:13:39.213Z,17.47
2023-05-19T09:16:09.669Z,17.55
2023-05-19T09:18:39.936Z,17.52
2023-05-19T09:21:08.213Z,17.39
2023-05-19T09:23:38.624Z,17.59
2023-05-19T09:26:07.715Z,17.84
2023-05-19T09:28:37.686Z,17.78
2023-05-19T09:31:07.748Z,17.30
2023-05-19T09:33:38.400Z,17.45
2023-05-19T09:36:08.518Z,17.67
2023-05-19T09:38:37.525Z,17.72
2023-05-19T09:41:07.002Z,17.92
2023-05-19T09:43:36.428Z,17.64
2023-05-19T09:46:09.222Z,17.81
2023-05-19T09:48:39.817Z,17.95
2023-05-19T09:51:10.399Z,18.27
2023-05-19T09:53:39.017Z,18.21
2023-05-19T09:56:09.744Z,18.11
2023-05-19T09:58:39.035Z,18.09
2023-05-19T10:01:08.233Z,18.06
2023-05-19T10:03:36.966Z,18.33
2023-05-19T10:06:09.090Z,18.37
2023-05-19T10:08:38.668Z,18.58
2023-05-19T10:11:06.721Z,18.66
2023-05-19T10:13:38.471Z,18.80
2023-05-19T10:16:07.805Z,18.99
2023-05-19T10:18:38.390Z,19.01
2023-05-19T10:21:09.580Z,19.29
2023-05-19T10:23:37.668Z,19.10
2023-05-19T10:26:07.550Z,18.72
2023-05-19T10:28:39.101Z,19.08
2023-05-19T10:31:10.785Z,18.84
2023-05-19T10:33:50.365Z,19.06
2023-05-19T10:36:35.741Z,19.24
2023-05-19T10:39:08.177Z,19.45
2023-05-19T10:41:47.609Z,19.35
2023-05-19T10:44:29.514Z,19.58
2023-05-19T10:46:57.741Z,19.88
2023-05-19T10:49:26.316Z,19.14
2023-05-19T10:51:57.865Z,18.72
2023-05-19T10:54:41.019Z,19.33
2023-05-19T10:57:09.844Z,20.05
2023-05-19T10:59:39.602Z,20.22
2023-05-19T11:02:10.161Z,20.43
2023-05-19T11:04:50.986Z,20.54
2023-05-19T11:07:24.506Z,20.11
2023-05-19T11:09:53.204Z,20.05
2023-05-19T11:12:24.802Z,19.54
2023-05-19T11:14:54.277Z,19.72
2023-05-19T11:17:23.947Z,20.00
2023-05-19T11:19:56.250Z,20.51
2023-05-19T11:22:30.852Z,20.89
2023-05-19T11:24:59.126Z,20.72
2023-05-19T11:27:31.009Z,20.53
2023-05-19T11:30:00.347Z,20.52
2023-05-19T11:32:30.026Z,20.95
2023-05-19T11:34:58.905Z,21.08
2023-05-19T11:37:29.660Z,21.10
2023-05-19T11:39:57.770Z,21.87
2023-05-19T11:42:25.925Z,22.24
2023-05-19T11:44:56.641Z,22.94
2023-05-19T11:47:24.791Z,22.06
2023-05-19T11:49:53.111Z,22.82
2023-05-19T11:52:22.873Z,21.32
2023-05-19T11:54:52.689Z,21.89
2023-05-19T11:57:21.231Z,20.65
2023-05-19T12:00:03.197Z,20.40
2023-05-19T12:02:33.280Z,20.70
2023-05-19T12:05:01.902Z,20.50
2023-05-19T12:07:30.457Z,20.25
2023-05-19T12:10:01.243Z,20.67
2023-05-19T12:12:31.107Z,22.66
2023-05-19T12:14:59.588Z,23.67
2023-05-19T12:17:28.017Z,23.93
2023-05-19T12:19:56.187Z,23.90
2023-05-19T12:22:26.873Z,22.46
2023-05-19T12:24:55.660Z,20.96
2023-05-19T12:27:36.443Z,21.42
2023-05-19T12:30:09.718Z,22.11
2023-05-19T12:32:38.667Z,21.57
2023-05-19T12:35:09.247Z,21.72
2023-05-19T12:37:38.232Z,22.16
